createdAt,value
2019-02-14T00:00:44.661Z,11.00
2019-02-14T00:03:10.945Z,11.63
2019-02-14T00:05:37.338Z,11.50
2019-02-14T00:08:03.728Z,11.85
2019-02-14T00:10:30.130Z,10.95
2019-02-14T00:12:56.449Z,11.38
2019-02-14T00:15:22.724Z,11.10
2019-02-14T00:17:49.112Z,11.20
2019-02-14T00:20:15.466Z,11.48
2019-02-14T00:22:41.766Z,12.37
2019-02-14T00:25:09.031Z,11.45
2019-02-14T00:27:35.456Z,11.48
2019-02-14T00:30:01.930Z,11.93
2019-02-14T00:32:28.310Z,11.15
2019-02-14T00:34:54.576Z,11.65
2019-02-14T00:37:20.849Z,13.80
2019-02-14T00:39:47.169Z,13.10
2019-02-14T00:42:13.556Z,11.28
2019-02-14T00:44:39.821Z,12.43
2019-02-14T00:47:06.317Z,11.88
2019-02-14T00:49:32.716Z,11.48
2019-02-14T00:51:59.124Z,12.85
2019-02-14T00:54:25.462Z,11.78
2019-02-14T00:56:51.777Z,11.30
2019-02-14T00:59:18.176Z,12.65
2019-02-14T01:01:44.449Z,11.88
2019-02-14T01:04:10.859Z,12.15
2019-02-14T01:06:37.118Z,12.98
2019-02-14T01:09:04.930Z,14.47
2019-02-14T01:11:31.322Z,16.73
2019-02-14T01:13:57.813Z,18.10
2019-02-14T01:16:24.196Z,19.75
2019-02-14T01:18:50.564Z,18.92
2019-02-14T01:21:16.861Z,12.60
2019-02-14T01:23:43.229Z,11.63
2019-02-14T01:26:09.743Z,12.30
2019-02-14T01:28:36.056Z,12.95
2019-02-14T01:31:02.463Z,12.60
2019-02-14T01:33:28.765Z,13.15
2019-02-14T01:35:55.256Z,11.75
2019-02-14T01:38:21.669Z,13.30
2019-02-14T01:40:48.171Z,13.28
2019-02-14T01:43:14.450Z,12.60
2019-02-14T01:45:40.751Z,11.70
2019-02-14T01:48:07.410Z,12.70
2019-02-14T01:50:33.855Z,12.13
2019-02-14T01:53:00.164Z,12.47
2019-02-14T01:55:26.515Z,12.20
2019-02-14T01:57:52.911Z,11.95
2019-02-14T02:00:19.482Z,11.22
2019-02-14T02:02:45.895Z,11.18
2019-02-14T02:05:12.285Z,11.33
2019-02-14T02:07:38.670Z,11.40
2019-02-14T02:10:10.115Z,11.30
2019-02-14T02:12:36.613Z,12.47
2019-02-14T02:15:05.809Z,13.18
2019-02-14T02:17:32.220Z,13.08
2019-02-14T02:19:58.548Z,11.35
2019-02-14T02:22:25.026Z,11.05
2019-02-14T02:24:51.314Z,11.80
2019-02-14T02:27:17.810Z,11.95
2019-02-14T02:29:44.240Z,10.82
2019-02-14T02:32:10.558Z,11.68
2019-02-14T02:34:36.922Z,10.65
2019-02-14T02:37:03.412Z,10.65
2019-02-14T02:39:29.898Z,10.32
2019-02-14T02:41:56.224Z,11.50
2019-02-14T02:44:22.513Z,11.08
2019-02-14T02:46:48.925Z,11.22
2019-02-14T02:49:15.345Z,11.50
2019-02-14T02:51:41.729Z,11.53
2019-02-14T02:54:08.144Z,11.53
2019-02-14T02:56:34.589Z,12.88
2019-02-14T02:59:01.114Z,12.65
2019-02-14T03:01:27.485Z,13.20
2019-02-14T03:03:53.865Z,12.07
2019-02-14T03:06:20.231Z,12.13
2019-02-14T03:08:46.502Z,12.07
2019-02-14T03:11:13.041Z,11.93
2019-02-14T03:13:39.321Z,11.18
2019-02-14T03:16:05.604Z,11.57
2019-02-14T03:18:32.002Z,11.95
2019-02-14T03:20:58.284Z,12.30
2019-02-14T03:23:24.672Z,12.78
2019-02-14T03:25:51.110Z,11.60
2019-02-14T03:28:17.591Z,11.93
2019-02-14T03:30:44.103Z,11.43
2019-02-14T03:33:10.563Z,12.63
2019-02-14T03:35:37.083Z,12.40
2019-02-14T03:38:03.362Z,12.68
2019-02-14T03:40:29.769Z,13.38
2019-02-14T03:42:56.405Z,11.53
2019-02-14T03:45:22.930Z,12.90
2019-02-14T03:47:49.438Z,12.73
2019-02-14T03:50:15.893Z,13.50
2019-02-14T03:52:42.418Z,11.03
2019-02-14T03:55:09.504Z,11.10
2019-02-14T03:57:37.101Z,13.25
2019-02-14T04:00:10.593Z,13.08
2019-02-14T04:02:36.870Z,11.68
2019-02-14T04:05:04.652Z,11.05
2019-02-14T04:07:31.081Z,11.12
2019-02-14T04:09:57.364Z,11.53
2019-02-14T04:12:23.727Z,11.57
2019-02-14T04:14:50.138Z,12.75
2019-02-14T04:17:16.635Z,10.23
2019-02-14T04:19:43.076Z,13.62
2019-02-14T04:22:09.366Z,11.60
2019-02-14T04:24:35.673Z,10.85
2019-02-14T04:27:02.072Z,11.75
2019-02-14T04:29:28.356Z,11.78
2019-02-14T04:31:54.759Z,10.93
2019-02-14T04:34:21.200Z,10.85
2019-02-14T04:36:47.529Z,11.78
2019-02-14T04:39:13.896Z,21.00
2019-02-14T04:41:40.199Z,12.40
2019-02-14T04:44:06.569Z,12.13
2019-02-14T04:46:32.993Z,12.50
2019-02-14T04:48:59.395Z,11.05
2019-02-14T04:51:25.917Z,11.90
2019-02-14T04:53:52.344Z,11.78
2019-02-14T04:56:18.759Z,11.22
2019-02-14T04:58:45.121Z,11.12
2019-02-14T05:01:11.392Z,11.48
2019-02-14T05:03:37.850Z,11.48
2019-02-14T05:06:04.091Z,10.65
2019-02-14T05:08:30.353Z,11.53
2019-02-14T05:10:56.641Z,11.15
2019-02-14T05:13:22.944Z,10.50
2019-02-14T05:15:49.416Z,11.95
2019-02-14T05:18:15.685Z,13.60
2019-02-14T05:20:42.076Z,11.60
2019-02-14T05:23:08.487Z,12.10
2019-02-14T05:25:34.792Z,12.63
2019-02-14T05:28:01.108Z,13.13
2019-02-14T05:30:27.391Z,14.75
2019-02-14T05:32:53.797Z,12.30
2019-02-14T05:35:20.209Z,11.95
2019-02-14T05:37:46.482Z,11.63
2019-02-14T05:40:12.748Z,12.68
2019-02-14T05:42:39.176Z,12.88
2019-02-14T05:45:08.659Z,11.43
2019-02-14T05:47:35.024Z,12.25
2019-02-14T05:50:01.435Z,12.20
2019-02-14T05:52:27.909Z,11.05
2019-02-14T05:54:54.296Z,11.22
2019-02-14T05:57:20.575Z,14.07
2019-02-14T05:59:46.950Z,13.78
2019-02-14T06:02:14.254Z,13.50
2019-02-14T06:04:40.513Z,13.85
2019-02-14T06:07:06.820Z,14.30
2019-02-14T06:09:33.085Z,14.30
2019-02-14T06:11:59.445Z,13.90
2019-02-14T06:14:25.843Z,13.03
2019-02-14T06:16:52.237Z,12.80
2019-02-14T06:19:18.620Z,14.60
2019-02-14T06:21:44.914Z,13.93
2019-02-14T06:24:11.191Z,13.58
2019-02-14T06:26:37.608Z,12.70
2019-02-14T06:29:03.997Z,13.43
2019-02-14T06:31:30.270Z,13.43
2019-02-14T06:33:56.548Z,12.00
2019-02-14T06:36:22.974Z,10.70
2019-02-14T06:38:49.238Z,12.70
2019-02-14T06:41:15.536Z,12.07
2019-02-14T06:43:42.060Z,12.07
2019-02-14T06:46:08.478Z,12.20
2019-02-14T06:48:34.747Z,12.68
2019-02-14T06:51:01.134Z,13.60
2019-02-14T06:53:27.424Z,12.82
2019-02-14T06:55:53.801Z,11.68
2019-02-14T06:58:20.052Z,12.03
2019-02-14T07:00:46.387Z,14.55
2019-02-14T07:03:12.642Z,12.30
2019-02-14T07:05:39.039Z,13.03
2019-02-14T07:08:05.303Z,13.72
2019-02-14T07:10:31.807Z,13.22
2019-02-14T07:12:58.114Z,13.50
2019-02-14T07:15:24.515Z,12.65
2019-02-14T07:17:50.772Z,13.85
2019-02-14T07:20:17.320Z,13.95
2019-02-14T07:22:43.697Z,14.00
2019-02-14T07:25:10.852Z,14.10
2019-02-14T07:27:37.542Z,13.65
2019-02-14T07:30:08.589Z,16.50
2019-02-14T07:32:35.072Z,16.57
2019-02-14T07:35:01.471Z,15.68
2019-02-14T07:37:27.741Z,15.05
2019-02-14T07:39:54.124Z,24.20
2019-02-14T07:42:20.768Z,23.42
2019-02-14T07:44:47.055Z,24.98
2019-02-14T07:47:13.315Z,26.93
2019-02-14T07:49:39.642Z,24.05
2019-02-14T07:52:07.342Z,21.40
2019-02-14T07:54:33.591Z,22.22
2019-02-14T07:56:59.836Z,38.33
2019-02-14T07:59:26.118Z,27.67
2019-02-14T08:01:52.526Z,25.35
2019-02-14T08:04:21.758Z,61.05
2019-02-14T08:06:48.170Z,41.85
2019-02-14T08:09:14.482Z,35.13
2019-02-14T08:11:40.774Z,38.80
2019-02-14T08:14:07.139Z,27.75
2019-02-14T08:16:33.547Z,20.25
2019-02-14T08:19:00.153Z,22.55
2019-02-14T08:21:26.513Z,19.98
2019-02-14T08:23:52.862Z,15.93
2019-02-14T08:26:19.300Z,18.62
2019-02-14T08:28:45.566Z,18.37
2019-02-14T08:31:11.832Z,18.90
2019-02-14T08:33:38.128Z,18.02
2019-02-14T08:36:04.503Z,18.60
2019-02-14T08:38:30.781Z,18.90
2019-02-14T08:40:57.071Z,19.17
2019-02-14T08:43:23.337Z,18.62
2019-02-14T08:45:49.622Z,18.67
2019-02-14T08:48:16.006Z,17.40
2019-02-14T08:50:42.288Z,18.12
2019-02-14T08:53:08.830Z,17.02
2019-02-14T08:55:35.199Z,16.90
2019-02-14T08:58:01.460Z,17.62
2019-02-14T09:00:28.110Z,17.45
2019-02-14T09:02:54.603Z,16.55
2019-02-14T09:05:20.989Z,16.30
2019-02-14T09:07:54.198Z,15.83
2019-02-14T09:10:15.962Z,16.97
2019-02-14T09:12:42.353Z,16.60
2019-02-14T09:15:10.820Z,16.85
2019-02-14T09:17:37.276Z,16.27
2019-02-14T09:20:07.133Z,18.48
2019-02-14T09:22:33.523Z,16.75
2019-02-14T09:24:59.930Z,19.10
2019-02-14T09:27:26.351Z,17.32
2019-02-14T09:29:52.732Z,17.70
2019-02-14T09:32:20.942Z,16.95
2019-02-14T09:34:47.420Z,18.23
2019-02-14T09:37:13.739Z,16.57
2019-02-14T09:39:41.038Z,17.75
2019-02-14T09:42:07.760Z,17.40
2019-02-14T09:44:34.043Z,16.75
2019-02-14T09:47:00.430Z,17.20
2019-02-14T09:49:26.715Z,17.77
2019-02-14T09:51:53.033Z,17.85
2019-02-14T09:54:19.350Z,17.23
2019-02-14T09:56:45.628Z,18.15
2019-02-14T09:59:11.919Z,18.37
2019-02-14T10:01:38.561Z,17.82
2019-02-14T10:04:04.890Z,19.45
2019-02-14T10:06:36.717Z,17.48
2019-02-14T10:09:00.756Z,17.48
2019-02-14T10:11:28.312Z,18.30
2019-02-14T10:13:55.550Z,16.75
2019-02-14T10:16:21.922Z,19.55
2019-02-14T10:18:48.236Z,18.55
2019-02-14T10:21:14.487Z,16.62
2019-02-14T10:23:40.902Z,16.05
2019-02-14T10:26:07.253Z,17.45
2019-02-14T10:28:33.671Z,17.82
2019-02-14T10:30:59.956Z,17.12
2019-02-14T10:33:26.283Z,16.97
2019-02-14T10:35:52.704Z,18.37
2019-02-14T10:38:22.318Z,19.35
2019-02-14T10:40:47.146Z,19.57
2019-02-14T10:43:13.543Z,19.32
2019-02-14T10:45:39.901Z,20.48
2019-02-14T10:48:06.201Z,20.20
2019-02-14T10:50:32.485Z,21.25
2019-02-14T10:52:58.878Z,22.75
2019-02-14T10:55:25.219Z,21.33
2019-02-14T10:57:51.550Z,21.55
2019-02-14T11:00:24.441Z,20.45
2019-02-14T11:02:51.261Z,21.57
2019-02-14T11:05:18.023Z,22.90
2019-02-14T11:07:44.429Z,19.75
2019-02-14T11:10:12.523Z,21.20
2019-02-14T11:12:38.977Z,19.30
2019-02-14T11:15:11.530Z,21.37
2019-02-14T11:17:37.889Z,22.90
2019-02-14T11:20:06.963Z,21.50
2019-02-14T11:22:33.283Z,23.05
2019-02-14T11:24:59.582Z,20.15
2019-02-14T11:27:26.003Z,19.65
2019-02-14T11:29:52.385Z,19.65
2019-02-14T11:32:18.671Z,19.92
2019-02-14T11:34:44.952Z,20.97
2019-02-14T11:37:11.233Z,20.82
2019-02-14T11:39:37.476Z,20.65
2019-02-14T11:42:03.894Z,22.27
2019-02-14T11:44:39.312Z,21.60
2019-02-14T11:46:58.225Z,21.33
2019-02-14T11:49:24.605Z,21.12
2019-02-14T11:51:50.971Z,20.97
2019-02-14T11:54:17.252Z,21.40
2019-02-14T11:56:43.667Z,21.25
2019-02-14T11:59:09.945Z,21.33
2019-02-14T12:01:36.197Z,22.02
2019-02-14T12:04:02.703Z,20.57
2019-02-14T12:06:29.007Z,22.13
2019-02-14T12:09:00.083Z,22.00
2019-02-14T12:11:23.472Z,22.98
2019-02-14T12:13:49.868Z,20.45
2019-02-14T12:16:16.252Z,22.00
2019-02-14T12:18:42.513Z,19.70
2019-02-14T12:21:08.817Z,21.37
2019-02-14T12:23:35.203Z,20.10
2019-02-14T12:26:01.616Z,18.27
2019-02-14T12:28:27.894Z,17.48
2019-02-14T12:30:54.209Z,17.87
2019-02-14T12:33:20.700Z,15.55
2019-02-14T12:35:47.077Z,15.53
2019-02-14T12:38:13.468Z,15.50
2019-02-14T12:40:39.850Z,15.10
2019-02-14T12:43:06.092Z,14.53
2019-02-14T12:45:32.503Z,16.00
2019-02-14T12:47:58.876Z,17.10
2019-02-14T12:50:25.256Z,17.80
2019-02-14T12:52:51.627Z,19.92
2019-02-14T12:55:17.980Z,19.65
2019-02-14T12:57:44.390Z,20.00
2019-02-14T13:00:19.798Z,18.40
2019-02-14T13:02:46.118Z,20.60
2019-02-14T13:05:12.375Z,18.42
2019-02-14T13:07:38.670Z,17.90
2019-02-14T13:10:08.583Z,18.10
2019-02-14T13:12:34.860Z,18.05
2019-02-14T13:15:01.367Z,15.30
2019-02-14T13:17:27.745Z,17.32
2019-02-14T13:19:54.037Z,16.97
2019-02-14T13:22:20.389Z,16.65
2019-02-14T13:24:46.707Z,16.70
2019-02-14T13:27:12.981Z,15.20
2019-02-14T13:29:39.284Z,14.10
2019-02-14T13:32:05.581Z,14.68
2019-02-14T13:34:31.948Z,15.32
2019-02-14T13:37:01.529Z,14.95
2019-02-14T13:39:29.665Z,14.03
2019-02-14T13:41:54.524Z,15.05
2019-02-14T13:44:20.810Z,15.63
2019-02-14T13:46:47.193Z,16.93
2019-02-14T13:49:13.477Z,17.62
2019-02-14T13:51:39.860Z,17.17
2019-02-14T13:54:06.169Z,17.45
2019-02-14T13:56:32.431Z,16.95
2019-02-14T13:58:58.708Z,19.32
2019-02-14T14:01:25.128Z,18.25
2019-02-14T14:03:51.524Z,17.80
2019-02-14T14:06:17.781Z,16.87
2019-02-14T14:08:44.088Z,16.10
2019-02-14T14:11:10.452Z,24.18
2019-02-14T14:13:36.733Z,26.10
2019-02-14T14:16:03.029Z,19.90
2019-02-14T14:18:29.307Z,16.00
2019-02-14T14:20:55.617Z,16.05
2019-02-14T14:23:21.881Z,15.53
2019-02-14T14:25:48.162Z,15.60
2019-02-14T14:28:14.492Z,16.70
2019-02-14T14:30:40.834Z,14.40
2019-02-14T14:33:07.209Z,15.00
2019-02-14T14:35:33.516Z,14.73
2019-02-14T14:37:59.901Z,16.40
2019-02-14T14:40:26.363Z,15.67
2019-02-14T14:42:54.630Z,15.77
2019-02-14T14:45:39.724Z,15.53
2019-02-14T14:48:18.968Z,16.50
2019-02-14T14:50:38.456Z,16.30
2019-02-14T14:53:07.517Z,16.20
2019-02-14T14:55:34.045Z,14.60
2019-02-14T14:58:00.366Z,15.07
2019-02-14T15:00:26.865Z,16.47
2019-02-14T15:02:53.145Z,16.50
2019-02-14T15:05:19.558Z,15.60
2019-02-14T15:07:45.962Z,14.50
2019-02-14T15:10:12.284Z,15.73
2019-02-14T15:12:38.616Z,16.37
2019-02-14T15:15:06.311Z,19.40
2019-02-14T15:17:33.265Z,16.70
2019-02-14T15:19:59.623Z,15.57
2019-02-14T15:22:25.969Z,16.00
2019-02-14T15:24:52.382Z,15.37
2019-02-14T15:27:18.712Z,15.90
2019-02-14T15:29:45.031Z,14.60
2019-02-14T15:32:11.379Z,16.17
2019-02-14T15:34:37.780Z,16.43
2019-02-14T15:37:04.268Z,16.87
2019-02-14T15:39:30.764Z,15.60
2019-02-14T15:41:57.050Z,15.33
2019-02-14T15:44:23.375Z,15.37
2019-02-14T15:46:49.858Z,18.20
2019-02-14T15:49:16.243Z,16.33
2019-02-14T15:51:43.793Z,16.00
2019-02-14T15:54:11.882Z,17.87
2019-02-14T15:56:38.220Z,15.67
2019-02-14T15:59:04.705Z,15.97
2019-02-14T16:01:30.969Z,17.67
2019-02-14T16:03:57.267Z,15.90
2019-02-14T16:06:23.585Z,15.57
2019-02-14T16:08:49.981Z,15.27
2019-02-14T16:11:16.312Z,15.90
2019-02-14T16:13:42.685Z,13.40
2019-02-14T16:16:09.030Z,15.83
2019-02-14T16:18:35.503Z,14.73
2019-02-14T16:21:03.547Z,14.53
2019-02-14T16:23:31.767Z,15.33
2019-02-14T16:25:58.953Z,15.10
2019-02-14T16:28:25.387Z,15.93
2019-02-14T16:30:52.824Z,15.73
2019-02-14T16:33:19.755Z,17.00
2019-02-14T16:35:46.039Z,16.47
2019-02-14T16:38:13.933Z,16.40
2019-02-14T16:40:40.365Z,15.37
2019-02-14T16:43:06.785Z,15.35
2019-02-14T16:45:33.192Z,16.65
2019-02-14T16:47:59.495Z,16.40
2019-02-14T16:50:25.793Z,16.90
2019-02-14T16:52:52.065Z,17.37
2019-02-14T16:55:18.461Z,17.12
2019-02-14T16:57:44.940Z,17.80
2019-02-14T17:00:11.458Z,20.23
2019-02-14T17:02:37.871Z,18.50
2019-02-14T17:05:04.371Z,17.50
2019-02-14T17:07:30.664Z,17.05
2019-02-14T17:09:57.220Z,17.52
2019-02-14T17:12:23.521Z,18.17
2019-02-14T17:14:49.779Z,18.50
2019-02-14T17:17:16.189Z,18.05
2019-02-14T17:19:42.564Z,16.12
2019-02-14T17:22:08.871Z,16.90
2019-02-14T17:24:35.152Z,16.60
2019-02-14T17:27:01.530Z,16.77
2019-02-14T17:29:27.948Z,16.23
2019-02-14T17:31:54.315Z,15.80
2019-02-14T17:34:20.704Z,16.95
2019-02-14T17:36:46.993Z,18.55
2019-02-14T17:39:13.293Z,21.07
2019-02-14T17:41:39.590Z,21.02
2019-02-14T17:44:05.950Z,22.73
2019-02-14T17:46:32.238Z,19.05
2019-02-14T17:48:58.560Z,22.70
2019-02-14T17:51:24.926Z,20.77
2019-02-14T17:53:51.375Z,19.62
2019-02-14T17:56:17.612Z,19.40
2019-02-14T17:58:43.928Z,18.60
2019-02-14T18:01:10.244Z,18.57
2019-02-14T18:03:36.525Z,18.65
2019-02-14T18:06:02.953Z,17.50
2019-02-14T18:08:29.320Z,17.92
2019-02-14T18:10:55.689Z,17.75
2019-02-14T18:13:21.985Z,19.62
2019-02-14T18:15:48.247Z,19.00
2019-02-14T18:18:14.562Z,17.57
2019-02-14T18:20:43.015Z,16.30
2019-02-14T18:23:08.997Z,14.33
2019-02-14T18:25:35.382Z,14.87
2019-02-14T18:28:01.675Z,13.58
2019-02-14T18:30:28.085Z,14.18
2019-02-14T18:32:54.365Z,15.68
2019-02-14T18:35:20.781Z,15.40
2019-02-14T18:37:47.125Z,16.02
2019-02-14T18:40:13.596Z,15.03
2019-02-14T18:42:45.146Z,18.37
2019-02-14T18:45:12.474Z,19.27
2019-02-14T18:47:39.966Z,21.82
2019-02-14T18:50:09.653Z,21.02
2019-02-14T18:52:36.009Z,21.25
2019-02-14T18:55:02.495Z,21.05
2019-02-14T18:57:28.773Z,18.57
2019-02-14T18:59:55.075Z,19.02
2019-02-14T19:02:22.773Z,18.02
2019-02-14T19:04:49.110Z,17.15
2019-02-14T19:07:15.375Z,16.50
2019-02-14T19:09:41.676Z,17.82
2019-02-14T19:12:08.355Z,19.48
2019-02-14T19:14:34.750Z,18.02
2019-02-14T19:17:01.013Z,19.10
2019-02-14T19:19:27.275Z,19.30
2019-02-14T19:21:53.672Z,20.10
2019-02-14T19:24:20.027Z,19.30
2019-02-14T19:26:46.347Z,19.27
2019-02-14T19:29:12.628Z,18.62
2019-02-14T19:31:39.062Z,18.12
2019-02-14T19:34:05.534Z,18.85
2019-02-14T19:36:31.825Z,17.20
2019-02-14T19:38:58.707Z,16.00
2019-02-14T19:41:25.535Z,15.25
2019-02-14T19:43:52.054Z,15.20
2019-02-14T19:46:18.443Z,14.68
2019-02-14T19:48:44.720Z,14.55
2019-02-14T19:51:11.006Z,15.43
2019-02-14T19:53:37.306Z,13.48
2019-02-14T19:56:03.568Z,14.05
2019-02-14T19:58:29.868Z,15.98
2019-02-14T20:00:56.224Z,14.50
2019-02-14T20:03:22.552Z,13.88
2019-02-14T20:05:48.827Z,13.35
2019-02-14T20:08:15.078Z,14.83
2019-02-14T20:10:41.370Z,17.52
2019-02-14T20:13:07.728Z,18.05
2019-02-14T20:15:37.267Z,20.10
2019-02-14T20:18:02.263Z,16.97
2019-02-14T20:20:28.456Z,16.00
2019-02-14T20:22:54.840Z,15.48
2019-02-14T20:25:26.833Z,16.77
2019-02-14T20:27:53.195Z,16.07
2019-02-14T20:30:19.503Z,16.57
2019-02-14T20:32:45.832Z,16.73
2019-02-14T20:35:12.182Z,16.70
2019-02-14T20:37:38.617Z,15.68
2019-02-14T20:40:08.092Z,15.65
2019-02-14T20:42:34.454Z,15.55
2019-02-14T20:45:00.979Z,15.03
2019-02-14T20:47:27.345Z,13.62
2019-02-14T20:49:53.648Z,14.35
2019-02-14T20:52:20.109Z,13.98
2019-02-14T20:54:46.523Z,16.00
2019-02-14T20:57:12.888Z,16.95
2019-02-14T20:59:39.173Z,16.55
2019-02-14T21:02:05.940Z,15.70
2019-02-14T21:04:32.290Z,15.53
2019-02-14T21:06:58.559Z,18.57
2019-02-14T21:09:24.828Z,19.12
2019-02-14T21:11:54.729Z,20.90
2019-02-14T21:14:19.366Z,20.45
2019-02-14T21:16:45.633Z,20.45
2019-02-14T21:19:12.025Z,19.60
2019-02-14T21:21:38.445Z,19.52
2019-02-14T21:24:04.869Z,19.48
2019-02-14T21:26:31.185Z,22.77
2019-02-14T21:28:57.654Z,19.00
2019-02-14T21:31:24.102Z,16.00
2019-02-14T21:33:52.347Z,16.25
2019-02-14T21:36:18.698Z,15.48
2019-02-14T21:38:44.987Z,16.35
2019-02-14T21:41:11.510Z,15.23
2019-02-14T21:43:37.838Z,16.37
2019-02-14T21:46:04.196Z,17.20
2019-02-14T21:48:30.486Z,15.60
2019-02-14T21:50:56.802Z,15.65
2019-02-14T21:53:23.187Z,17.02
2019-02-14T21:55:49.525Z,16.52
2019-02-14T21:58:15.850Z,17.00
2019-02-14T22:00:42.213Z,15.10
2019-02-14T22:03:08.615Z,15.80
2019-02-14T22:05:35.142Z,19.17
2019-02-14T22:08:01.561Z,17.05
2019-02-14T22:10:27.982Z,14.78
2019-02-14T22:12:54.438Z,15.98
2019-02-14T22:15:26.312Z,15.10
2019-02-14T22:17:52.645Z,17.27
2019-02-14T22:20:19.015Z,15.08
2019-02-14T22:22:45.454Z,15.15
2019-02-14T22:25:11.936Z,15.15
2019-02-14T22:27:38.408Z,14.65
2019-02-14T22:30:09.328Z,15.43
2019-02-14T22:32:35.802Z,14.60
2019-02-14T22:35:02.380Z,15.53
2019-02-14T22:37:28.839Z,16.12
2019-02-14T22:39:55.163Z,18.17
2019-02-14T22:42:21.505Z,16.52
2019-02-14T22:44:47.829Z,15.68
2019-02-14T22:47:14.132Z,14.00
2019-02-14T22:49:40.525Z,14.18
2019-02-14T22:52:06.842Z,14.73
2019-02-14T22:54:33.226Z,15.30
2019-02-14T22:56:59.605Z,14.65
2019-02-14T22:59:25.952Z,13.68
2019-02-14T23:01:52.444Z,15.68
2019-02-14T23:04:18.762Z,14.98
2019-02-14T23:06:45.028Z,13.78
2019-02-14T23:09:11.504Z,14.65
2019-02-14T23:11:37.800Z,14.00
2019-02-14T23:14:04.158Z,14.30
2019-02-14T23:16:30.571Z,12.60
2019-02-14T23:18:57.047Z,15.80
2019-02-14T23:21:23.377Z,14.20
2019-02-14T23:23:49.683Z,15.88
2019-02-14T23:26:15.997Z,14.78
2019-02-14T23:28:42.395Z,16.97
2019-02-14T23:31:08.648Z,16.35
2019-02-14T23:33:34.943Z,17.37
2019-02-14T23:36:01.209Z,15.85
2019-02-14T23:38:27.476Z,18.65
2019-02-14T23:40:53.762Z,18.35
2019-02-14T23:43:20.032Z,17.27
2019-02-14T23:45:46.312Z,17.75
2019-02-14T23:48:12.694Z,18.67
2019-02-14T23:50:39.062Z,18.15
2019-02-14T23:53:05.453Z,17.55
2019-02-14T23:55:31.730Z,16.75
2019-02-14T23:57:58.096Z,16.15
